createdAt,value
2023-02-21T00:01:37.330Z,25.48
2023-02-21T00:04:22.288Z,28.48
2023-02-21T00:07:07.025Z,26.53
2023-02-21T00:09:51.794Z,28.63
2023-02-21T00:12:36.500Z,27.20
2023-02-21T00:15:21.249Z,26.60
2023-02-21T00:18:06.152Z,28.80
2023-02-21T00:20:50.903Z,26.67
2023-02-21T00:23:35.765Z,28.67
2023-02-21T00:26:20.564Z,26.95
2023-02-21T00:29:05.323Z,27.52
2023-02-21T00:31:50.066Z,32.33
2023-02-21T00:34:34.865Z,27.53
2023-02-21T00:37:19.618Z,26.35
2023-02-21T00:40:04.466Z,28.63
2023-02-21T00:42:49.256Z,28.40
2023-02-21T00:45:34.527Z,29.85
2023-02-21T00:48:19.432Z,28.33
2023-02-21T00:51:05.153Z,28.65
2023-02-21T00:53:49.941Z,26.77
2023-02-21T00:56:34.505Z,29.05
2023-02-21T00:59:19.169Z,29.15
2023-02-21T01:02:03.905Z,28.63
2023-02-21T01:04:48.737Z,29.38
2023-02-21T01:07:33.429Z,28.75
2023-02-21T01:10:18.193Z,31.15
2023-02-21T01:13:03.222Z,29.08
2023-02-21T01:15:47.862Z,27.90
2023-02-21T01:18:32.765Z,33.80
2023-02-21T01:21:17.600Z,34.13
2023-02-21T01:24:02.514Z,28.98
2023-02-21T01:26:47.227Z,35.90
2023-02-21T01:29:32.036Z,31.23
2023-02-21T01:32:16.749Z,32.03
2023-02-21T01:35:01.728Z,34.47
2023-02-21T01:37:46.446Z,32.08
2023-02-21T01:40:34.717Z,29.42
2023-02-21T01:43:19.496Z,30.43
2023-02-21T01:46:07.876Z,32.08
2023-02-21T01:48:53.981Z,30.25
2023-02-21T01:51:44.507Z,27.13
2023-02-21T01:54:30.792Z,33.00
2023-02-21T01:57:19.671Z,29.90
2023-02-21T02:00:04.919Z,33.60
2023-02-21T02:03:07.315Z,36.10
2023-02-21T02:05:52.556Z,27.70
2023-02-21T02:08:41.815Z,30.02
2023-02-21T02:11:44.975Z,28.07
2023-02-21T02:14:34.621Z,27.38
2023-02-21T02:17:14.272Z,30.13
2023-02-21T02:19:52.374Z,27.17
2023-02-21T02:22:31.402Z,27.58
2023-02-21T02:25:12.084Z,31.57
2023-02-21T02:27:44.366Z,30.88
2023-02-21T02:30:38.591Z,28.90
2023-02-21T02:33:30.946Z,32.92
2023-02-21T02:36:02.576Z,29.88
2023-02-21T02:38:47.360Z,30.13
2023-02-21T02:41:26.007Z,33.70
2023-02-21T02:44:10.293Z,30.73
2023-02-21T02:46:39.849Z,35.95
2023-02-21T02:49:12.718Z,37.85
2023-02-21T02:51:39.198Z,37.30
2023-02-21T02:54:06.017Z,37.70
2023-02-21T02:56:33.725Z,34.42
2023-02-21T02:59:07.004Z,38.15
2023-02-21T03:01:36.054Z,37.72
2023-02-21T03:04:43.281Z,35.40
2023-02-21T03:07:31.339Z,36.75
2023-02-21T03:10:22.466Z,34.75
2023-02-21T03:13:02.326Z,33.05
2023-02-21T03:15:47.786Z,29.83
2023-02-21T03:18:33.502Z,34.40
2023-02-21T03:21:03.738Z,36.88
2023-02-21T03:23:34.422Z,30.90
2023-02-21T03:26:06.681Z,33.17
2023-02-21T03:28:33.924Z,32.42
2023-02-21T03:31:03.751Z,37.33
2023-02-21T03:33:30.290Z,30.95
2023-02-21T03:36:00.183Z,34.88
2023-02-21T03:38:30.714Z,35.13
2023-02-21T03:40:57.662Z,34.45
2023-02-21T03:43:24.049Z,33.10
2023-02-21T03:45:50.415Z,38.25
2023-02-21T03:48:26.209Z,30.38
2023-02-21T03:50:57.705Z,35.33
2023-02-21T03:53:24.089Z,34.35
2023-02-21T03:55:50.502Z,32.20
2023-02-21T03:58:16.967Z,33.72
2023-02-21T04:00:43.366Z,31.55
2023-02-21T04:03:10.883Z,31.08
2023-02-21T04:05:37.312Z,31.55
2023-02-21T04:08:03.720Z,31.10
2023-02-21T04:10:30.663Z,31.52
2023-02-21T04:12:58.979Z,34.05
2023-02-21T04:15:25.429Z,32.75
2023-02-21T04:17:51.772Z,30.20
2023-02-21T04:20:18.397Z,33.07
2023-02-21T04:22:51.849Z,33.22
2023-02-21T04:25:24.428Z,40.08
2023-02-21T04:27:50.791Z,33.17
2023-02-21T04:30:17.336Z,32.03
2023-02-21T04:32:43.774Z,33.40
2023-02-21T04:35:10.133Z,32.63
2023-02-21T04:37:36.473Z,36.78
2023-02-21T04:40:02.949Z,34.33
2023-02-21T04:42:29.306Z,30.77
2023-02-21T04:45:00.306Z,36.87
2023-02-21T04:47:27.192Z,32.35
2023-02-21T04:49:53.557Z,32.92
2023-02-21T04:52:22.552Z,33.10
2023-02-21T04:54:48.966Z,31.60
2023-02-21T04:57:17.088Z,34.67
2023-02-21T04:59:43.449Z,32.30
2023-02-21T05:02:09.965Z,34.92
2023-02-21T05:04:37.326Z,33.15
2023-02-21T05:07:04.674Z,38.28
2023-02-21T05:09:31.461Z,37.23
2023-02-21T05:11:57.831Z,39.17
2023-02-21T05:14:24.229Z,32.65
2023-02-21T05:16:50.661Z,37.22
2023-02-21T05:19:29.752Z,34.60
2023-02-21T05:21:58.188Z,32.27
2023-02-21T05:24:26.045Z,38.80
2023-02-21T05:26:52.817Z,34.97
2023-02-21T05:29:19.291Z,34.70
2023-02-21T05:31:47.109Z,38.65
2023-02-21T05:34:14.646Z,36.73
2023-02-21T05:36:41.283Z,33.97
2023-02-21T05:39:08.887Z,34.97
2023-02-21T05:41:35.694Z,37.50
2023-02-21T05:44:03.072Z,36.05
2023-02-21T05:46:33.072Z,36.60
2023-02-21T05:49:01.065Z,36.97
2023-02-21T05:51:28.174Z,36.13
2023-02-21T05:53:54.605Z,37.20
2023-02-21T05:56:21.732Z,36.72
2023-02-21T05:58:48.181Z,37.20
2023-02-21T06:01:15.029Z,37.10
2023-02-21T06:03:41.737Z,35.35
2023-02-21T06:06:08.159Z,35.97
2023-02-21T06:08:46.485Z,36.72
2023-02-21T06:11:14.020Z,36.80
2023-02-21T06:13:41.140Z,38.15
2023-02-21T06:16:07.691Z,35.63
2023-02-21T06:18:34.372Z,43.35
2023-02-21T06:21:00.738Z,39.22
2023-02-21T06:23:27.151Z,36.77
2023-02-21T06:25:53.535Z,38.17
2023-02-21T06:28:19.895Z,35.55
2023-02-21T06:30:46.402Z,37.88
2023-02-21T06:33:12.809Z,37.38
2023-02-21T06:35:39.144Z,37.50
2023-02-21T06:38:05.481Z,32.65
2023-02-21T06:40:31.839Z,34.47
2023-02-21T06:42:58.206Z,33.72
2023-02-21T06:45:24.560Z,35.60
2023-02-21T06:47:50.989Z,37.60
2023-02-21T06:50:17.423Z,36.72
2023-02-21T06:52:43.799Z,34.60
2023-02-21T06:55:10.200Z,37.50
2023-02-21T06:57:36.570Z,36.25
2023-02-21T07:00:04.869Z,35.47
2023-02-21T07:02:31.512Z,33.45
2023-02-21T07:04:58.003Z,38.30
2023-02-21T07:07:24.385Z,38.60
2023-02-21T07:09:50.783Z,36.30
2023-02-21T07:12:17.143Z,35.53
2023-02-21T07:14:43.495Z,35.70
2023-02-21T07:17:09.869Z,39.80
2023-02-21T07:19:36.227Z,43.47
2023-02-21T07:22:03.093Z,38.50
2023-02-21T07:24:29.480Z,36.67
2023-02-21T07:26:56.518Z,38.05
2023-02-21T07:29:22.931Z,35.60
2023-02-21T07:31:49.438Z,39.72
2023-02-21T07:34:16.671Z,38.05
2023-02-21T07:36:43.181Z,36.93
2023-02-21T07:39:09.542Z,41.17
2023-02-21T07:41:35.950Z,46.67
2023-02-21T07:44:02.534Z,42.58
2023-02-21T07:46:29.406Z,40.67
2023-02-21T07:48:56.331Z,39.57
2023-02-21T07:51:22.727Z,37.38
2023-02-21T07:53:49.100Z,42.08
2023-02-21T07:56:15.458Z,38.60
2023-02-21T07:58:41.823Z,40.28
2023-02-21T08:01:08.326Z,41.20
2023-02-21T08:03:34.684Z,36.47
2023-02-21T08:06:01.290Z,37.63
2023-02-21T08:08:27.683Z,38.60
2023-02-21T08:10:54.045Z,37.00
2023-02-21T08:13:20.425Z,38.67
2023-02-21T08:15:46.847Z,35.45
2023-02-21T08:18:24.189Z,42.90
2023-02-21T08:20:52.179Z,39.25
2023-02-21T08:23:18.752Z,37.17
2023-02-21T08:25:46.231Z,34.73
2023-02-21T08:28:13.061Z,38.30
2023-02-21T08:30:39.687Z,40.38
2023-02-21T08:33:06.214Z,38.97
2023-02-21T08:35:32.656Z,38.80
2023-02-21T08:38:02.953Z,33.87
2023-02-21T08:40:31.094Z,33.72
2023-02-21T08:42:59.036Z,37.05
2023-02-21T08:45:27.205Z,39.63
2023-02-21T08:47:54.298Z,37.97
2023-02-21T08:50:22.878Z,36.10
2023-02-21T08:52:50.519Z,37.53
2023-02-21T08:55:17.811Z,35.65
2023-02-21T08:57:44.204Z,38.00
2023-02-21T09:00:11.800Z,39.25
2023-02-21T09:02:41.550Z,36.40
2023-02-21T09:05:18.763Z,40.17
2023-02-21T09:07:48.294Z,34.55
2023-02-21T09:10:14.853Z,32.72
2023-02-21T09:12:41.396Z,36.35
2023-02-21T09:15:08.958Z,36.50
2023-02-21T09:17:35.390Z,35.90
2023-02-21T09:20:07.408Z,36.47
2023-02-21T09:22:34.304Z,35.53
2023-02-21T09:25:01.346Z,39.13
2023-02-21T09:27:37.022Z,34.63
2023-02-21T09:30:15.550Z,40.33
2023-02-21T09:32:42.312Z,36.50
2023-02-21T09:35:13.858Z,38.42
2023-02-21T09:37:42.243Z,38.20
2023-02-21T09:41:01.593Z,37.30
2023-02-21T09:43:45.762Z,42.30
2023-02-21T09:46:21.346Z,39.45
2023-02-21T09:48:48.633Z,34.92
2023-02-21T09:51:16.692Z,39.05
2023-02-21T09:53:46.326Z,38.80
2023-02-21T09:56:28.305Z,38.45
2023-02-21T09:58:56.615Z,37.60
2023-02-21T10:01:35.045Z,36.15
2023-02-21T10:04:08.848Z,37.05
2023-02-21T10:06:51.933Z,39.87
2023-02-21T10:09:44.154Z,39.63
2023-02-21T10:12:16.553Z,37.40
2023-02-21T10:15:02.924Z,35.10
2023-02-21T10:17:42.820Z,34.95
2023-02-21T10:20:15.869Z,36.23
2023-02-21T10:22:46.341Z,32.35
2023-02-21T10:25:29.232Z,35.95
2023-02-21T10:27:58.345Z,35.40
2023-02-21T10:30:32.901Z,33.60
2023-02-21T10:32:59.314Z,30.93
2023-02-21T10:35:25.824Z,37.50
2023-02-21T10:37:57.828Z,38.10
2023-02-21T10:40:38.268Z,38.63
2023-02-21T10:43:39.308Z,34.70
2023-02-21T10:46:13.336Z,36.40
2023-02-21T10:48:42.691Z,40.45
2023-02-21T10:51:12.924Z,32.97
2023-02-21T10:53:44.997Z,34.38
2023-02-21T10:56:20.441Z,36.42
2023-02-21T10:58:51.789Z,35.33
2023-02-21T11:01:21.723Z,34.70
2023-02-21T11:03:56.955Z,33.10
2023-02-21T11:06:37.219Z,36.75
2023-02-21T11:09:35.407Z,35.63
2023-02-21T11:12:02.500Z,35.67
2023-02-21T11:14:30.302Z,35.72
2023-02-21T11:17:19.157Z,34.85
2023-02-21T11:19:48.564Z,37.05
2023-02-21T11:22:17.812Z,35.22
2023-02-21T11:24:52.138Z,31.73
2023-02-21T11:27:18.623Z,36.60
2023-02-21T11:29:49.034Z,35.85
2023-02-21T11:32:45.533Z,33.67
2023-02-21T11:35:23.416Z,35.05
2023-02-21T11:37:49.729Z,31.20
2023-02-21T11:40:30.276Z,36.05
2023-02-21T11:43:28.949Z,33.67
2023-02-21T11:46:16.172Z,35.25
2023-02-21T11:49:05.921Z,33.45
2023-02-21T11:51:35.960Z,32.70
2023-02-21T11:54:04.464Z,35.00
2023-02-21T11:56:50.332Z,37.05
2023-02-21T11:59:28.644Z,32.35
2023-02-21T12:02:13.359Z,33.97
2023-02-21T12:04:59.699Z,31.60
2023-02-21T12:08:08.052Z,32.33
2023-02-21T12:10:49.933Z,31.83
2023-02-21T12:13:44.313Z,31.58
2023-02-21T12:16:43.013Z,30.88
2023-02-21T12:19:20.836Z,33.97
2023-02-21T12:22:01.325Z,33.03
2023-02-21T12:25:01.437Z,30.73
2023-02-21T12:27:34.049Z,32.20
2023-02-21T12:30:27.462Z,30.95
2023-02-21T12:33:08.724Z,33.73
2023-02-21T12:35:45.330Z,31.20
2023-02-21T12:38:27.652Z,35.65
2023-02-21T12:41:31.404Z,33.45
2023-02-21T12:44:02.019Z,31.65
2023-02-21T12:46:34.048Z,31.63
2023-02-21T12:49:15.478Z,36.85
2023-02-21T12:51:47.030Z,30.52
2023-02-21T12:54:28.237Z,31.35
2023-02-21T12:57:01.552Z,36.20
2023-02-21T12:59:33.467Z,32.27
2023-02-21T13:02:09.664Z,34.80
2023-02-21T13:04:52.469Z,33.50
2023-02-21T13:07:27.323Z,37.70
2023-02-21T13:10:27.827Z,33.17
2023-02-21T13:13:01.031Z,33.93
2023-02-21T13:15:30.436Z,38.47
2023-02-21T13:18:11.354Z,33.95
2023-02-21T13:20:42.567Z,34.97
2023-02-21T13:24:05.512Z,32.65
2023-02-21T13:26:47.752Z,34.70
2023-02-21T13:29:24.882Z,32.47
2023-02-21T13:32:09.765Z,29.15
2023-02-21T13:34:59.829Z,31.83
2023-02-21T13:37:29.934Z,30.15
2023-02-21T13:40:09.576Z,32.37
2023-02-21T13:42:38.591Z,33.03
2023-02-21T13:45:23.481Z,31.45
2023-02-21T13:47:52.801Z,31.77
2023-02-21T13:50:37.622Z,31.17
2023-02-21T13:53:33.119Z,33.77
2023-02-21T13:55:59.497Z,34.13
2023-02-21T13:58:46.411Z,33.97
2023-02-21T14:01:29.656Z,33.38
2023-02-21T14:03:57.809Z,33.60
2023-02-21T14:06:36.799Z,33.37
2023-02-21T14:09:17.085Z,31.60
2023-02-21T14:11:54.112Z,33.80
2023-02-21T14:14:20.480Z,35.22
2023-02-21T14:16:51.703Z,30.92
2023-02-21T14:19:25.562Z,33.30
2023-02-21T14:22:03.299Z,35.75
2023-02-21T14:24:37.186Z,33.65
2023-02-21T14:29:42.267Z,35.05
2023-02-21T14:32:08.699Z,34.07
2023-02-21T14:34:40.564Z,33.88
2023-02-21T14:37:19.755Z,31.30
2023-02-21T14:39:59.968Z,32.63
2023-02-21T14:42:35.364Z,32.17
2023-02-21T14:45:18.489Z,30.97
2023-02-21T14:48:10.997Z,32.17
2023-02-21T14:51:08.693Z,29.60
2023-02-21T14:53:56.759Z,29.75
2023-02-21T14:56:47.988Z,34.60
2023-02-21T14:59:38.758Z,29.70
2023-02-21T15:02:15.269Z,31.90
2023-02-21T15:04:49.661Z,32.45
2023-02-21T15:07:22.250Z,31.65
2023-02-21T15:10:06.992Z,31.02
2023-02-21T15:12:39.798Z,30.87
2023-02-21T15:15:14.316Z,31.20
2023-02-21T15:17:40.879Z,32.42
2023-02-21T15:20:16.237Z,33.97
2023-02-21T15:22:42.984Z,33.45
2023-02-21T15:25:09.377Z,34.00
2023-02-21T15:27:57.747Z,36.70
2023-02-21T15:30:33.891Z,35.03
2023-02-21T15:33:21.232Z,36.97
2023-02-21T15:35:52.977Z,32.85
2023-02-21T15:38:42.334Z,36.77
2023-02-21T15:41:24.746Z,36.63
2023-02-21T15:43:57.064Z,36.70
2023-02-21T15:46:31.975Z,31.48
2023-02-21T15:49:02.800Z,35.67
2023-02-21T15:51:30.214Z,35.03
2023-02-21T15:54:22.506Z,35.70
2023-02-21T15:57:09.833Z,35.65
2023-02-21T15:59:37.563Z,31.80
2023-02-21T16:02:14.802Z,34.97
2023-02-21T16:04:46.709Z,36.00
2023-02-21T16:07:33.981Z,35.35
2023-02-21T16:10:07.257Z,34.75
2023-02-21T16:12:40.489Z,34.13
2023-02-21T16:15:18.756Z,35.88
2023-02-21T16:17:46.453Z,36.40
2023-02-21T16:20:18.900Z,35.05
2023-02-21T16:23:08.703Z,36.00
2023-02-21T16:25:35.337Z,38.20
2023-02-21T16:28:02.186Z,37.75
2023-02-21T16:30:30.896Z,39.23
2023-02-21T16:33:03.298Z,43.00
2023-02-21T16:35:30.814Z,42.92
2023-02-21T16:37:59.266Z,44.20
2023-02-21T16:40:28.566Z,41.03
2023-02-21T16:42:56.170Z,38.83
2023-02-21T16:45:23.310Z,42.58
2023-02-21T16:47:56.663Z,39.47
2023-02-21T16:50:36.800Z,40.10
2023-02-21T16:53:04.506Z,44.55
2023-02-21T16:55:31.512Z,42.27
2023-02-21T16:58:16.849Z,44.47
2023-02-21T17:00:43.217Z,47.03
2023-02-21T17:03:09.587Z,46.33
2023-02-21T17:05:36.033Z,50.00
2023-02-21T17:08:03.073Z,47.90
2023-02-21T17:10:29.454Z,49.03
2023-02-21T17:12:55.874Z,49.95
2023-02-21T17:15:23.596Z,50.33
2023-02-21T17:17:53.498Z,52.08
2023-02-21T17:20:21.601Z,49.10
2023-02-21T17:22:48.312Z,49.78
2023-02-21T17:25:15.188Z,53.47
2023-02-21T17:27:41.686Z,52.13
2023-02-21T17:30:08.726Z,55.50
2023-02-21T17:32:35.125Z,52.70
2023-02-21T17:35:01.549Z,55.38
2023-02-21T17:37:28.006Z,60.03
2023-02-21T17:39:55.728Z,59.53
2023-02-21T17:42:24.318Z,59.72
2023-02-21T17:44:51.946Z,63.17
2023-02-21T17:47:20.033Z,61.33
2023-02-21T17:49:51.317Z,63.33
2023-02-21T17:52:18.119Z,65.20
2023-02-21T17:54:44.548Z,64.90
2023-02-21T17:57:11.029Z,60.43
2023-02-21T17:59:38.127Z,64.25
2023-02-21T18:02:05.678Z,69.32
2023-02-21T18:04:32.165Z,70.32
2023-02-21T18:06:58.670Z,70.93
2023-02-21T18:09:25.667Z,71.43
2023-02-21T18:11:55.132Z,66.75
2023-02-21T18:14:23.251Z,72.97
2023-02-21T18:16:49.672Z,69.13
2023-02-21T18:19:16.049Z,68.00
2023-02-21T18:21:45.520Z,69.27
2023-02-21T18:24:13.338Z,74.10
2023-02-21T18:26:39.897Z,72.78
2023-02-21T18:29:07.232Z,72.53
2023-02-21T18:31:34.954Z,74.63
2023-02-21T18:34:03.024Z,69.07
2023-02-21T18:36:30.325Z,81.80
2023-02-21T18:38:57.005Z,69.10
2023-02-21T18:41:23.442Z,81.40
2023-02-21T18:43:51.016Z,73.43
2023-02-21T18:46:20.170Z,83.87
2023-02-21T18:48:49.213Z,86.30
2023-02-21T18:51:18.812Z,75.57
2023-02-21T18:53:46.854Z,74.50
2023-02-21T18:56:15.874Z,78.28
2023-02-21T18:58:42.250Z,78.60
2023-02-21T19:01:11.492Z,75.03
2023-02-21T19:03:38.264Z,74.60
2023-02-21T19:06:07.506Z,77.30
2023-02-21T19:08:33.905Z,87.47
2023-02-21T19:11:00.308Z,75.50
2023-02-21T19:13:26.659Z,75.03
2023-02-21T19:15:53.105Z,76.60
2023-02-21T19:18:19.534Z,75.80
2023-02-21T19:20:46.022Z,84.10
2023-02-21T19:23:13.060Z,90.07
2023-02-21T19:25:39.556Z,81.82
2023-02-21T19:28:06.829Z,81.15
2023-02-21T19:30:36.178Z,93.65
2023-02-21T19:33:07.569Z,85.53
2023-02-21T19:35:35.223Z,88.47
2023-02-21T19:38:04.494Z,80.88
2023-02-21T19:40:31.054Z,80.63
2023-02-21T19:42:57.457Z,77.28
2023-02-21T19:45:23.843Z,84.00
2023-02-21T19:47:50.243Z,76.77
2023-02-21T19:50:17.359Z,75.97
2023-02-21T19:52:46.194Z,76.53
2023-02-21T19:55:13.662Z,78.95
2023-02-21T19:57:40.062Z,82.65
2023-02-21T20:00:10.768Z,81.07
2023-02-21T20:02:37.319Z,83.22
2023-02-21T20:05:04.519Z,78.22
2023-02-21T20:07:30.921Z,83.15
2023-02-21T20:09:57.719Z,84.57
2023-02-21T20:12:24.283Z,85.47
2023-02-21T20:14:51.284Z,83.38
2023-02-21T20:17:18.084Z,86.82
2023-02-21T20:19:44.771Z,85.53
2023-02-21T20:22:11.474Z,85.72
2023-02-21T20:24:37.867Z,88.60
2023-02-21T20:27:04.680Z,92.93
2023-02-21T20:29:31.039Z,90.78
2023-02-21T20:31:58.759Z,92.95
2023-02-21T20:34:25.219Z,91.40
2023-02-21T20:36:51.788Z,93.93
2023-02-21T20:39:28.244Z,101.90
2023-02-21T20:41:56.025Z,103.68
2023-02-21T20:44:22.570Z,86.60
2023-02-21T20:46:49.425Z,103.68
2023-02-21T20:49:16.352Z,103.50
2023-02-21T20:51:43.898Z,100.88
2023-02-21T20:54:19.621Z,106.20
2023-02-21T20:56:47.199Z,104.65
2023-02-21T20:59:17.639Z,106.32
2023-02-21T21:01:48.199Z,105.83
2023-02-21T21:04:19.580Z,102.53
2023-02-21T21:06:47.119Z,99.05
2023-02-21T21:09:17.737Z,104.47
2023-02-21T21:11:44.928Z,104.47
2023-02-21T21:14:12.562Z,103.40
2023-02-21T21:16:40.264Z,107.28
2023-02-21T21:19:06.904Z,98.25
2023-02-21T21:21:33.388Z,93.88
2023-02-21T21:24:00.534Z,75.85
2023-02-21T21:26:27.832Z,96.93
2023-02-21T21:28:54.222Z,92.60
2023-02-21T21:31:20.653Z,102.38
2023-02-21T21:33:47.024Z,90.88
2023-02-21T21:36:13.465Z,87.05
2023-02-21T21:38:40.803Z,85.30
2023-02-21T21:41:15.194Z,94.70
2023-02-21T21:43:46.005Z,96.93
2023-02-21T21:46:13.589Z,90.20
2023-02-21T21:48:44.263Z,88.10
2023-02-21T21:51:11.603Z,89.47
2023-02-21T21:53:41.452Z,94.60
2023-02-21T21:56:08.290Z,86.18
2023-02-21T21:58:34.943Z,89.72
2023-02-21T22:01:05.272Z,84.10
2023-02-21T22:03:32.118Z,94.43
2023-02-21T22:06:00.521Z,84.68
2023-02-21T22:08:28.332Z,76.53
2023-02-21T22:10:54.913Z,75.45
2023-02-21T22:13:21.833Z,82.65
2023-02-21T22:15:48.675Z,75.70
2023-02-21T22:18:19.452Z,76.68
2023-02-21T22:20:50.273Z,81.40
2023-02-21T22:23:21.051Z,73.10
2023-02-21T22:25:47.510Z,75.78
2023-02-21T22:28:13.925Z,79.23
2023-02-21T22:30:40.761Z,75.40
2023-02-21T22:33:13.281Z,81.35
2023-02-21T22:35:40.574Z,76.78
2023-02-21T22:38:07.628Z,74.38
2023-02-21T22:40:36.658Z,82.63
2023-02-21T22:43:05.568Z,93.68
2023-02-21T22:45:34.810Z,69.82
2023-02-21T22:48:04.249Z,82.72
2023-02-21T22:50:37.013Z,83.85
2023-02-21T22:53:08.021Z,82.17
2023-02-21T22:55:36.883Z,72.15
2023-02-21T22:58:06.625Z,81.75
2023-02-21T23:00:34.556Z,72.55
2023-02-21T23:03:03.225Z,88.00
2023-02-21T23:05:29.691Z,90.03
2023-02-21T23:08:00.441Z,79.38
2023-02-21T23:10:28.411Z,92.88
2023-02-21T23:12:58.167Z,90.45
2023-02-21T23:15:25.419Z,87.95
2023-02-21T23:17:52.232Z,92.80
2023-02-21T23:20:22.195Z,86.82
2023-02-21T23:22:53.727Z,82.28
2023-02-21T23:25:26.016Z,100.32
2023-02-21T23:27:57.534Z,82.55
2023-02-21T23:30:36.221Z,83.03
2023-02-21T23:33:02.646Z,82.13
2023-02-21T23:35:29.014Z,85.82
2023-02-21T23:37:55.384Z,86.32
2023-02-21T23:40:24.782Z,89.05
2023-02-21T23:42:54.538Z,91.63
2023-02-21T23:45:23.801Z,90.68
2023-02-21T23:47:52.952Z,72.53
2023-02-21T23:50:33.181Z,79.43
2023-02-21T23:52:59.949Z,79.63
2023-02-21T23:55:29.949Z,73.30
2023-02-21T23:58:00.547Z,78.93
